Time;durP1;ratioP1;P1;durP2;ratioP2;P2;SDS_P1;SDS_P2;PMS_P1;PMS_P2;Temp;Humidity;BMP_temperature;BMP_pressure;BME280_temperature;BME280_humidity;BME280_pressure;Samples;Min_cycle;Max_cycle;Signal;HPM_P1;HPM_P2
2022/05/25 00:01:56;;;;;;;3.53;2.20;;;;;;;16.72;83.91;97828.75;4155279;28;20645;-88
2022/05/25 00:04:00;;;;;;;3.30;1.63;;;;;;;16.73;83.56;97827.78;4159073;28;20668;-89
2022/05/25 00:06:06;;;;;;;3.50;1.67;;;;;;;16.72;84.44;97828.75;4163762;28;20626;-89
2022/05/25 00:08:14;;;;;;;3.63;1.50;;;;;;;16.70;84.89;97833.34;4159018;28;20625;-89
2022/05/25 00:10:18;;;;;;;5.13;1.60;;;;;;;16.68;83.82;97830.00;4143259;28;20634;-89
2022/05/25 00:12:23;;;;;;;6.03;1.60;;;;;;;16.64;85.11;97828.69;4161286;28;20637;-89
2022/05/25 00:14:26;;;;;;;3.70;1.73;;;;;;;16.59;84.18;97825.63;4174487;28;20702;-89
2022/05/25 00:16:30;;;;;;;2.17;1.53;;;;;;;16.55;85.38;97831.34;4155439;28;20653;-89
2022/05/25 00:18:33;;;;;;;2.80;1.60;;;;;;;16.50;86.23;97829.16;4160381;28;20621;-89
2022/05/25 00:20:36;;;;;;;2.80;1.70;;;;;;;16.48;86.14;97826.81;4174819;28;21218;-89
2022/05/25 00:22:43;;;;;;;6.00;2.10;;;;;;;16.46;85.81;97826.97;4173826;28;20769;-89
2022/05/25 00:24:47;;;;;;;2.97;1.53;;;;;;;16.44;86.36;97828.91;4153299;28;21051;-89
2022/05/25 00:26:50;;;;;;;2.13;1.30;;;;;;;16.43;86.98;97834.34;4145931;28;20649;-89
2022/05/25 00:28:54;;;;;;;4.00;1.60;;;;;;;16.44;87.47;97834.19;4157323;28;21215;-89
2022/05/25 00:30:57;;;;;;;3.63;1.90;;;;;;;16.45;87.42;97832.38;4149885;28;20685;-89
2022/05/25 00:33:01;;;;;;;3.27;1.60;;;;;;;16.46;86.77;97829.59;4173336;28;20714;-89
2022/05/25 00:35:06;;;;;;;4.27;1.70;;;;;;;16.48;86.93;97835.56;4156526;28;20632;-89
2022/05/25 00:37:09;;;;;;;5.23;1.60;;;;;;;16.50;86.74;97834.41;4175186;28;20711;-90
2022/05/25 00:39:12;;;;;;;4.00;1.53;;;;;;;16.48;85.11;97829.44;4155483;28;20657;-89
2022/05/25 00:41:17;;;;;;;6.07;1.77;;;;;;;16.46;85.45;97824.31;4157270;28;20678;-89
2022/05/25 00:43:20;;;;;;;2.80;1.70;;;;;;;16.45;87.06;97835.00;4154922;28;21240;-89
2022/05/25 00:45:23;;;;;;;2.23;1.60;;;;;;;16.46;86.46;97826.16;4157012;28;20738;-89
2022/05/25 00:47:27;;;;;;;3.20;1.80;;;;;;;16.46;86.71;97831.41;4155717;28;21191;-89
2022/05/25 00:49:33;;;;;;;4.80;1.80;;;;;;;16.44;87.01;97831.56;4161369;28;20639;-89
2022/05/25 00:51:39;;;;;;;2.30;1.83;;;;;;;16.44;89.27;97836.81;4162462;28;20635;-89
2022/05/25 00:53:45;;;;;;;3.20;1.83;;;;;;;16.43;87.32;97835.16;4149560;28;20688;-89
2022/05/25 00:55:48;;;;;;;3.30;1.73;;;;;;;16.45;88.92;97840.28;4163473;28;20748;-89
2022/05/25 00:57:54;;;;;;;3.93;1.80;;;;;;;16.43;89.35;97843.03;4176352;28;20741;-89
2022/05/25 01:00:03;;;;;;;4.00;1.90;;;;;;;16.43;86.84;97850.13;4173950;28;20974;-89
2022/05/25 01:02:06;;;;;;;7.00;2.23;;;;;;;16.42;87.99;97856.34;4158653;28;20671;-89
2022/05/25 01:04:10;;;;;;;3.03;1.70;;;;;;;16.41;86.91;97852.09;4144472;28;20628;-89
2022/05/25 01:06:22;;;;;;;4.90;1.90;;;;;;;16.39;87.68;97841.72;4139770;28;21235;-89
2022/05/25 01:08:34;;;;;;;3.13;1.70;;;;;;;16.38;88.06;97849.75;4154275;28;20638;-89
2022/05/25 01:10:48;;;;;;;3.50;1.80;;;;;;;16.34;87.68;97853.63;4158344;28;21034;-89
2022/05/25 01:13:03;;;;;;;2.70;1.80;;;;;;;16.31;87.60;97849.50;4141573;28;21208;-89
2022/05/25 01:15:13;;;;;;;9.90;2.27;;;;;;;16.30;87.88;97855.75;4141877;28;20626;-89
2022/05/25 01:17:22;;;;;;;6.40;2.80;;;;;;;16.29;89.01;97854.06;4155803;28;20721;-89
2022/05/25 01:19:55;;;;;;;4.70;1.93;;;;;;;16.25;88.45;97844.81;4143943;28;20634;-89
2022/05/25 01:22:01;;;;;;;5.67;1.97;;;;;;;16.23;88.68;97851.19;4142510;28;20665;-89
2022/05/25 01:24:13;;;;;;;2.53;1.70;;;;;;;16.18;89.60;97848.97;4140785;28;20665;-89
2022/05/25 01:26:52;;;;;;;3.67;2.40;;;;;;;16.14;88.71;97852.84;4175575;28;20631;-89
2022/05/25 01:29:06;;;;;;;2.90;2.10;;;;;;;16.13;89.14;97855.63;4117668;28;20618;-90
2022/05/25 01:31:13;;;;;;;3.70;1.90;;;;;;;16.13;87.87;97858.25;4143489;28;20691;-89
2022/05/25 01:33:21;;;;;;;4.20;2.20;;;;;;;16.14;89.59;97868.63;4171740;28;21253;-89
2022/05/25 01:35:34;;;;;;;3.63;2.00;;;;;;;16.15;89.47;97874.75;4157068;28;20716;-89
2022/05/25 01:37:43;;;;;;;2.80;1.77;;;;;;;16.15;89.02;97878.19;4157936;28;20625;-89
2022/05/25 01:39:56;;;;;;;4.00;2.07;;;;;;;16.12;88.85;97869.78;4136839;28;21265;-89
2022/05/25 01:42:02;;;;;;;2.87;2.20;;;;;;;16.08;89.49;97874.47;4176898;28;20693;-89
2022/05/25 01:44:28;;;;;;;2.90;1.80;;;;;;;16.08;89.80;97873.66;4148276;28;20789;-89
2022/05/25 01:46:35;;;;;;;4.10;2.00;;;;;;;16.09;88.41;97870.06;4156572;28;20732;-89
2022/05/25 01:48:40;;;;;;;4.03;2.10;;;;;;;16.09;87.38;97864.81;4142117;28;20661;-89
2022/05/25 01:50:47;;;;;;;5.30;2.20;;;;;;;16.08;88.59;97863.94;4158810;28;20735;-89
2022/05/25 01:52:53;;;;;;;3.10;1.90;;;;;;;16.07;87.13;97856.19;4149938;28;21184;-89
2022/05/25 01:55:00;;;;;;;3.37;2.00;;;;;;;16.06;87.96;97859.81;4159139;28;20636;-89
2022/05/25 01:57:09;;;;;;;3.50;2.30;;;;;;;16.07;87.05;97864.09;4171046;28;21159;-89
2022/05/25 01:59:14;;;;;;;3.40;1.80;;;;;;;16.04;87.80;97870.50;4159002;28;21281;-89
2022/05/25 02:01:18;;;;;;;3.70;2.20;;;;;;;16.00;88.46;97876.19;4156077;28;20684;-89
2022/05/25 02:05:50;;;;;;;3.17;2.10;;;;;;;15.91;89.76;97884.13;4175650;28;20651;-89
2022/05/25 02:08:05;;;;;;;4.90;2.27;;;;;;;15.91;88.96;97887.56;4176603;28;20681;-89
2022/05/25 02:10:21;;;;;;;3.10;2.13;;;;;;;15.91;88.70;97878.84;4142333;28;20647;-89
2022/05/25 02:12:33;;;;;;;5.70;2.40;;;;;;;15.89;89.19;97872.88;4143753;28;20645;-89
2022/05/25 02:14:46;;;;;;;3.80;2.13;;;;;;;15.89;87.87;97880.78;4159641;28;20702;-89
2022/05/25 02:16:57;;;;;;;2.60;1.90;;;;;;;15.89;87.55;97879.00;4160098;28;20702;-89
2022/05/25 02:19:06;;;;;;;3.40;1.90;;;;;;;15.87;89.34;97878.28;4142508;28;21073;-89
2022/05/25 02:21:16;;;;;;;4.17;1.80;;;;;;;15.83;89.17;97879.56;4159569;28;20751;-88
2022/05/25 02:23:21;;;;;;;2.80;1.90;;;;;;;15.80;89.23;97879.84;4159500;28;20646;-89
2022/05/25 02:25:29;;;;;;;5.80;1.90;;;;;;;15.80;88.57;97882.47;4178293;28;20640;-89
2022/05/25 02:27:36;;;;;;;4.70;1.93;;;;;;;15.75;89.14;97882.03;4143219;28;20727;-89
2022/05/25 02:29:41;;;;;;;2.90;1.70;;;;;;;15.72;88.64;97876.25;4157951;28;20660;-89
2022/05/25 02:31:48;;;;;;;4.73;1.80;;;;;;;15.68;91.13;97874.84;4157804;28;20632;-89
2022/05/25 02:33:55;;;;;;;4.93;2.20;;;;;;;15.67;90.88;97875.84;4142660;28;21931;-89
2022/05/25 02:36:00;;;;;;;6.73;1.63;;;;;;;15.65;90.23;97867.25;4160197;28;21281;-89
2022/05/25 02:38:06;;;;;;;4.97;2.00;;;;;;;15.63;89.63;97867.41;4172245;28;20638;-89
2022/05/25 02:40:31;;;;;;;3.40;1.90;;;;;;;15.64;89.51;97878.75;4165256;28;20631;-89
2022/05/25 02:42:37;;;;;;;4.03;1.70;;;;;;;15.64;90.56;97874.31;4157844;28;20640;-89
2022/05/25 02:44:41;;;;;;;3.17;2.00;;;;;;;15.64;88.45;97874.31;4157960;28;20696;-89
2022/05/25 02:46:44;;;;;;;4.50;1.93;;;;;;;15.62;88.37;97878.91;4153214;28;21238;-89
2022/05/25 02:48:50;;;;;;;4.20;2.07;;;;;;;15.63;87.38;97882.34;4157628;28;20632;-89
2022/05/25 02:50:53;;;;;;;3.80;1.70;;;;;;;15.67;87.72;97886.38;4141587;28;20765;-89
2022/05/25 02:52:57;;;;;;;2.50;1.90;;;;;;;15.65;87.05;97883.88;4154175;28;21527;-89
2022/05/25 02:55:01;;;;;;;2.80;1.73;;;;;;;15.67;89.23;97884.56;4138004;28;21212;-89
2022/05/25 02:57:05;;;;;;;3.60;1.70;;;;;;;15.66;88.59;97888.16;4140799;28;20641;-89
2022/05/25 02:59:08;;;;;;;3.20;2.20;;;;;;;15.64;87.90;97897.16;4147362;28;20633;-89
2022/05/25 03:01:11;;;;;;;3.77;1.90;;;;;;;15.63;87.23;97898.13;4158244;28;20693;-89
2022/05/25 03:03:14;;;;;;;3.90;1.87;;;;;;;15.64;88.22;97898.00;4158334;28;20759;-89
2022/05/25 03:05:17;;;;;;;4.67;2.40;;;;;;;15.64;88.11;97894.53;4142023;28;20626;-89
2022/05/25 03:07:20;;;;;;;3.23;2.20;;;;;;;15.60;87.64;97904.47;4142684;28;20696;-89
2022/05/25 03:09:25;;;;;;;2.43;1.73;;;;;;;15.59;88.63;97904.63;4140535;28;20632;-89
2022/05/25 03:11:28;;;;;;;3.40;2.20;;;;;;;15.55;88.75;97911.16;4160222;28;21254;-89
2022/05/25 03:13:32;;;;;;;2.20;1.90;;;;;;;15.50;89.88;97912.53;4180046;28;20641;-89
2022/05/25 03:15:35;;;;;;;5.33;2.30;;;;;;;15.46;90.49;97911.97;4146313;28;20738;-89
2022/05/25 03:17:40;;;;;;;4.40;2.00;;;;;;;15.42;89.61;97907.13;4174771;28;20639;-89
2022/05/25 03:19:49;;;;;;;4.40;2.40;;;;;;;15.37;90.08;97904.09;4189838;28;21298;-89
2022/05/25 03:21:54;;;;;;;5.47;2.43;;;;;;;15.36;88.93;97912.94;4176820;28;20653;-89
2022/05/25 03:23:57;;;;;;;2.93;1.90;;;;;;;15.32;90.49;97914.19;4175877;28;20648;-90
2022/05/25 03:26:01;;;;;;;3.93;2.00;;;;;;;15.31;90.30;97917.81;4181930;28;20661;-89
2022/05/25 03:28:05;;;;;;;7.73;2.33;;;;;;;15.29;89.81;97915.31;4171803;28;20734;-89
2022/05/25 03:30:10;;;;;;;2.50;2.17;;;;;;;15.29;89.64;97919.72;4171472;28;20651;-90
2022/05/25 03:32:13;;;;;;;4.20;2.07;;;;;;;15.28;89.34;97918.06;4156984;28;20695;-90
2022/05/25 03:34:17;;;;;;;2.37;2.10;;;;;;;15.29;89.40;97917.09;4174742;28;21077;-89
2022/05/25 03:36:20;;;;;;;3.57;1.90;;;;;;;15.30;88.96;97918.75;4177755;28;21201;-89
2022/05/25 03:38:23;;;;;;;2.10;1.73;;;;;;;15.28;89.57;97929.41;4172581;28;20635;-89
2022/05/25 03:40:26;;;;;;;2.30;1.87;;;;;;;15.29;90.55;97935.47;4176466;28;20640;-89
2022/05/25 03:42:31;;;;;;;2.30;1.63;;;;;;;15.29;89.00;97932.84;4172423;28;20650;-89
2022/05/25 03:44:34;;;;;;;4.90;2.40;;;;;;;15.31;89.58;97933.56;4191714;28;20640;-89
2022/05/25 03:46:37;;;;;;;2.30;1.83;;;;;;;15.31;90.17;97934.38;4172188;28;21063;-89
2022/05/25 03:48:41;;;;;;;2.67;2.00;;;;;;;15.31;91.20;97938.81;4172204;28;21217;-89
2022/05/25 03:50:44;;;;;;;2.80;1.90;;;;;;;15.30;90.29;97937.97;4155233;28;20636;-89
2022/05/25 03:52:47;;;;;;;3.73;1.90;;;;;;;15.31;91.15;97946.72;4156406;28;21297;-89
2022/05/25 03:54:51;;;;;;;2.93;2.10;;;;;;;15.32;90.59;97950.97;4176361;28;20619;-89
2022/05/25 03:56:54;;;;;;;3.70;1.63;;;;;;;15.34;89.96;97946.44;4174301;28;20653;-89
2022/05/25 03:58:59;;;;;;;13.80;3.00;;;;;;;15.35;90.46;97956.81;4173448;28;20632;-89
2022/05/25 04:01:03;;;;;;;3.13;2.30;;;;;;;15.33;89.79;97957.91;4172806;28;20637;-89
2022/05/25 04:03:06;;;;;;;5.47;2.33;;;;;;;15.29;90.72;97956.50;4172796;28;21018;-89
2022/05/25 04:05:10;;;;;;;2.70;2.20;;;;;;;15.30;89.61;97958.19;4153855;28;20757;-89
2022/05/25 04:07:13;;;;;;;3.33;2.20;;;;;;;15.29;89.43;97965.25;4159460;28;20671;-89
2022/05/25 04:09:16;;;;;;;5.60;2.33;;;;;;;15.28;90.31;97971.44;4175369;28;20639;-89
2022/05/25 04:11:41;;;;;;;3.87;2.10;;;;;;;15.27;91.49;97982.09;4136963;28;21073;-89
2022/05/25 04:13:44;;;;;;;3.33;1.97;;;;;;;15.24;91.25;97977.94;4163540;28;20630;-89
2022/05/25 04:15:49;;;;;;;3.20;2.40;;;;;;;15.23;91.73;97983.31;4190528;28;20633;-89
2022/05/25 04:17:53;;;;;;;4.07;2.10;;;;;;;15.21;92.03;97977.38;4175318;28;20622;-89
2022/05/25 04:19:57;;;;;;;4.67;2.60;;;;;;;15.20;91.75;97981.81;4190817;28;21064;-89
2022/05/25 04:22:00;;;;;;;3.30;2.03;;;;;;;15.18;91.78;97981.13;4169576;28;20701;-90
2022/05/25 04:24:06;;;;;;;5.43;2.17;;;;;;;15.16;91.00;97979.56;4175620;28;20677;-90
2022/05/25 04:26:09;;;;;;;2.63;2.33;;;;;;;15.14;90.96;97984.97;4175945;28;20657;-91
2022/05/25 04:28:12;;;;;;;6.27;2.50;;;;;;;15.15;91.33;97985.78;4176245;28;20638;-89
2022/05/25 04:30:19;;;;;;;5.60;2.20;;;;;;;15.14;91.04;97984.13;4156851;28;20663;-88
2022/05/25 04:32:23;;;;;;;6.17;2.60;;;;;;;15.14;90.05;97984.97;4173305;28;21064;-91
2022/05/25 04:34:26;;;;;;;7.10;2.70;;;;;;;15.17;91.67;97989.16;4173482;28;21194;-91
2022/05/25 04:36:29;;;;;;;8.33;2.30;;;;;;;15.20;90.82;97986.25;4171628;28;20630;-91
2022/05/25 04:38:33;;;;;;;7.30;2.40;;;;;;;15.21;90.63;97995.78;4172069;28;20634;-87
2022/05/25 04:40:38;;;;;;;3.03;2.13;;;;;;;15.23;89.80;97993.84;4168974;28;20699;-87
2022/05/25 04:42:43;;;;;;;3.63;2.50;;;;;;;15.26;89.77;98004.06;4177179;28;20649;-87
2022/05/25 04:44:47;;;;;;;11.63;5.50;;;;;;;15.27;90.77;98005.75;4176364;28;21289;-87
2022/05/25 04:46:50;;;;;;;8.47;4.97;;;;;;;15.27;90.42;98008.38;4179690;28;20627;-87
2022/05/25 04:48:54;;;;;;;3.20;2.60;;;;;;;15.29;90.04;98014.31;4169998;28;20626;-88
2022/05/25 04:50:58;;;;;;;5.03;2.80;;;;;;;15.29;91.51;98019.56;4157926;28;21048;-85
2022/05/25 04:53:01;;;;;;;4.90;2.23;;;;;;;15.34;92.56;98023.47;4172044;28;20625;-86
2022/05/25 04:55:06;;;;;;;3.30;2.20;;;;;;;15.38;90.65;98029.28;4156784;28;20685;-87
2022/05/25 04:57:20;;;;;;;2.43;1.90;;;;;;;15.42;90.83;98026.25;4189880;28;20636;-87
2022/05/25 04:59:24;;;;;;;3.00;2.10;;;;;;;15.47;90.53;98036.34;4189820;28;20640;-87
2022/05/25 05:01:27;;;;;;;3.30;2.03;;;;;;;15.53;90.40;98041.06;4173991;28;20655;-87
2022/05/25 05:03:35;;;;;;;6.23;2.13;;;;;;;15.57;89.51;98040.66;4158194;28;21120;-87
2022/05/25 05:05:39;;;;;;;4.60;2.77;;;;;;;15.61;91.12;98039.44;4175216;28;20642;-87
2022/05/25 05:07:42;;;;;;;3.43;2.20;;;;;;;15.62;91.05;98044.56;4173463;28;20646;-87
2022/05/25 05:09:46;;;;;;;4.37;2.50;;;;;;;15.61;89.42;98050.78;4179410;28;20638;-87
2022/05/25 05:11:50;;;;;;;3.50;2.27;;;;;;;15.63;89.72;98056.72;4175994;28;20627;-87
2022/05/25 05:13:53;;;;;;;4.17;2.50;;;;;;;15.66;90.67;98050.38;4189579;28;20721;-87
2022/05/25 05:16:04;;;;;;;3.33;2.17;;;;;;;15.69;91.73;98056.16;4165279;28;20654;-87
2022/05/25 05:18:07;;;;;;;7.30;2.27;;;;;;;15.73;91.71;98059.38;4173055;28;20670;-87
2022/05/25 05:20:33;;;;;;;7.20;2.60;;;;;;;15.79;90.06;98062.28;4192542;28;20701;-87
2022/05/25 05:22:37;;;;;;;3.73;2.70;;;;;;;15.86;90.82;98068.66;4196836;28;20654;-87
2022/05/25 05:24:41;;;;;;;4.93;2.40;;;;;;;15.93;90.00;98077.66;4170731;28;20961;-88
2022/05/25 05:26:44;;;;;;;4.27;2.20;;;;;;;15.99;89.79;98074.47;4193802;28;20640;-87
2022/05/25 05:28:49;;;;;;;7.17;2.73;;;;;;;16.02;87.08;98081.28;4170999;28;20648;-87
2022/05/25 05:30:54;;;;;;;3.90;2.50;;;;;;;16.06;90.58;98084.31;4157180;28;20644;-87
2022/05/25 05:32:57;;;;;;;3.60;2.57;;;;;;;16.10;90.46;98087.47;4177892;28;20632;-87
2022/05/25 05:35:00;;;;;;;6.07;2.40;;;;;;;16.12;90.72;98089.00;4171776;28;20723;-87
2022/05/25 05:37:06;;;;;;;5.33;2.67;;;;;;;16.17;90.59;98089.41;4173279;28;20664;-87
2022/05/25 05:39:16;;;;;;;4.63;2.10;;;;;;;16.23;89.35;98088.91;4168157;28;20698;-87
2022/05/25 05:41:24;;;;;;;8.17;2.53;;;;;;;16.30;89.63;98092.66;4175071;28;20631;-87
2022/05/25 05:43:27;;;;;;;2.97;2.50;;;;;;;16.37;90.00;98095.53;4192305;28;20650;-87
2022/05/25 05:45:41;;;;;;;4.27;2.30;;;;;;;16.54;88.81;98098.31;4174499;28;20688;-84
2022/05/25 05:47:49;;;;;;;4.03;2.57;;;;;;;16.69;88.06;98112.69;4154033;28;20659;-88
2022/05/25 05:49:53;;;;;;;2.83;2.53;;;;;;;16.79;88.86;98102.94;4191738;28;20634;-88
2022/05/25 05:52:00;;;;;;;6.53;2.50;;;;;;;16.98;88.02;98099.28;4164617;28;20690;-87
2022/05/25 05:54:03;;;;;;;3.23;2.67;;;;;;;17.28;87.03;98106.16;4175955;28;20638;-88
2022/05/25 05:56:08;;;;;;;3.03;2.73;;;;;;;17.51;86.04;98110.88;4196518;28;21023;-88
2022/05/25 05:58:11;;;;;;;4.23;2.93;;;;;;;17.80;85.00;98106.28;4197162;28;20669;-88
2022/05/25 06:00:16;;;;;;;3.40;3.10;;;;;;;18.11;84.14;98114.53;4182979;28;21223;-88
2022/05/25 06:02:19;;;;;;;3.63;3.00;;;;;;;18.52;81.63;98120.06;4177543;28;20643;-88
2022/05/25 06:04:23;;;;;;;4.63;2.90;;;;;;;18.63;79.80;98117.19;4196889;28;20747;-88
2022/05/25 06:06:26;;;;;;;6.30;2.87;;;;;;;18.97;78.71;98116.28;4172687;28;20678;-88
2022/05/25 06:08:58;;;;;;;3.43;3.00;;;;;;;19.34;77.99;98121.31;4122356;28;20624;-88
2022/05/25 06:11:03;;;;;;;4.43;3.13;;;;;;;19.72;75.03;98125.09;4191943;28;20642;-88
2022/05/25 06:13:08;;;;;;;3.73;2.80;;;;;;;19.88;76.12;98133.16;4192604;28;20681;-89
2022/05/25 06:19:53;;;;;;;5.23;2.37;;;;;;;20.86;69.06;98133.78;4171396;28;20631;-85
2022/05/25 06:21:58;;;;;;;3.50;2.77;;;;;;;20.61;70.37;98130.44;4174574;28;20649;-84
2022/05/25 06:24:01;;;;;;;5.63;2.80;;;;;;;20.27;72.21;98136.88;4180127;28;20641;-85
2022/05/25 06:26:04;;;;;;;3.10;2.30;;;;;;;20.08;71.79;98137.16;4140943;28;20703;-85
2022/05/25 06:28:09;;;;;;;3.47;2.40;;;;;;;20.12;73.21;98136.69;4140226;28;21040;-85
2022/05/25 06:30:13;;;;;;;4.30;2.63;;;;;;;20.02;71.69;98140.47;4144143;28;20631;-86
2022/05/25 06:32:18;;;;;;;3.60;2.50;;;;;;;19.90;72.37;98144.38;4160629;28;20635;-86
2022/05/25 06:34:21;;;;;;;3.83;2.37;;;;;;;19.74;73.45;98138.19;4166808;28;20610;-86
2022/05/25 06:36:26;;;;;;;4.17;2.40;;;;;;;19.62;75.40;98150.03;4162177;28;20633;-86
2022/05/25 06:38:30;;;;;;;4.97;2.27;;;;;;;19.70;73.90;98156.19;4181478;28;20624;-86
2022/05/25 06:40:33;;;;;;;4.97;2.73;;;;;;;19.78;73.87;98152.75;4158489;28;20630;-86
2022/05/25 06:42:39;;;;;;;3.27;2.40;;;;;;;19.86;73.25;98153.66;4163648;28;20647;-86
2022/05/25 06:44:55;;;;;;;4.73;2.30;;;;;;;20.44;71.81;98161.41;4120511;28;20631;-85
2022/05/25 06:46:58;;;;;;;2.53;1.90;;;;;;;20.73;71.18;98172.38;4179020;28;20624;-85
2022/05/25 06:49:01;;;;;;;3.00;2.50;;;;;;;21.12;71.79;98173.38;4156803;28;20725;-86
2022/05/25 06:51:15;;;;;;;2.90;2.20;;;;;;;21.56;69.48;98183.44;4158255;28;20626;-84
2022/05/25 06:53:18;;;;;;;3.80;2.30;;;;;;;21.80;66.24;98178.91;4155382;28;20648;-85
2022/05/25 06:55:22;;;;;;;2.27;1.90;;;;;;;22.06;67.44;98171.47;4159657;28;20674;-85
2022/05/25 06:57:26;;;;;;;3.50;2.30;;;;;;;22.26;64.98;98177.00;4163611;28;20637;-85
2022/05/25 06:59:29;;;;;;;4.70;2.40;;;;;;;22.40;64.66;98181.59;4178164;28;20639;-85
2022/05/25 07:01:33;;;;;;;3.50;2.07;;;;;;;22.64;65.24;98192.06;4176094;28;20651;-86
2022/05/25 07:03:38;;;;;;;2.60;2.10;;;;;;;22.91;66.20;98194.19;4141794;28;20657;-85
2022/05/25 07:05:43;;;;;;;3.10;2.00;;;;;;;22.90;64.60;98198.69;4139327;28;20631;-86
2022/05/25 07:07:46;;;;;;;3.70;2.00;;;;;;;22.90;63.66;98197.88;4161957;28;20740;-86
2022/05/25 07:09:50;;;;;;;3.70;2.07;;;;;;;22.95;62.37;98195.53;4143683;28;20629;-86
2022/05/25 07:11:55;;;;;;;3.63;2.50;;;;;;;22.93;61.95;98202.84;4146926;28;20627;-86
2022/05/25 07:13:59;;;;;;;8.10;5.67;;;;;;;23.07;61.14;98207.41;4162414;28;21064;-86
2022/05/25 07:16:04;;;;;;;2.87;2.00;;;;;;;23.02;61.26;98201.78;4162369;28;21531;-86
2022/05/25 07:18:09;;;;;;;4.10;1.90;;;;;;;23.00;60.47;98203.81;4175238;28;20675;-86
2022/05/25 07:20:12;;;;;;;3.53;1.90;;;;;;;23.39;59.12;98207.94;4196462;28;20727;-86
2022/05/25 07:22:16;;;;;;;15.07;2.93;;;;;;;23.23;58.25;98206.25;4177068;28;20643;-86
2022/05/25 07:24:22;;;;;;;3.17;1.83;;;;;;;22.82;60.74;98193.44;4178002;28;20721;-86
2022/05/25 07:26:27;;;;;;;5.27;3.33;;;;;;;22.50;62.41;98192.81;4177863;28;21195;-86
2022/05/25 07:28:30;;;;;;;4.27;2.37;;;;;;;22.39;62.81;98195.91;4171480;28;20739;-86
2022/05/25 07:30:34;;;;;;;3.90;2.20;;;;;;;22.49;59.92;98199.16;4172044;28;20647;-86
2022/05/25 07:32:37;;;;;;;3.40;2.40;;;;;;;22.36;60.40;98195.44;4179607;28;20633;-86
2022/05/25 07:34:45;;;;;;;3.17;1.93;;;;;;;22.36;63.47;98201.56;4158917;28;20648;-86
2022/05/25 07:36:53;;;;;;;2.90;1.80;;;;;;;22.51;62.50;98201.66;4145396;28;20734;-87
2022/05/25 07:38:59;;;;;;;3.00;2.20;;;;;;;22.61;62.49;98199.56;4178881;28;20681;-86
2022/05/25 07:41:02;;;;;;;2.80;2.07;;;;;;;22.72;63.38;98202.66;4174431;28;20623;-86
2022/05/25 07:43:09;;;;;;;9.80;7.73;;;;;;;22.56;63.81;98202.75;4171566;28;20637;-86
2022/05/25 07:45:13;;;;;;;4.90;2.80;;;;;;;22.35;65.67;98212.38;4188957;28;20659;-86
2022/05/25 07:47:16;;;;;;;4.40;1.90;;;;;;;22.63;65.84;98203.72;4152124;28;20637;-86
2022/05/25 07:49:19;;;;;;;3.40;2.07;;;;;;;23.04;64.39;98207.78;4174074;28;20671;-86
2022/05/25 07:51:25;;;;;;;2.40;1.90;;;;;;;23.40;60.93;98213.09;4173689;28;21045;-86
2022/05/25 07:55:49;;;;;;;4.70;2.00;;;;;;;24.04;60.39;98215.94;4159326;28;20650;-86
2022/05/25 07:57:53;;;;;;;4.33;1.67;;;;;;;24.15;62.70;98221.59;4161823;28;20645;-86
2022/05/25 07:59:56;;;;;;;2.50;1.87;;;;;;;24.12;59.25;98221.16;4158060;28;20630;-86
2022/05/25 08:06:48;;;;;;;3.50;1.80;;;;;;;24.53;62.43;98224.97;4178841;28;21308;-86
2022/05/25 08:08:52;;;;;;;3.20;2.00;;;;;;;24.68;58.61;98221.25;4177766;28;20647;-87
2022/05/25 08:10:58;;;;;;;3.60;1.80;;;;;;;24.64;59.66;98225.28;4173907;28;20632;-86
2022/05/25 08:13:02;;;;;;;4.27;2.10;;;;;;;24.21;59.43;98215.53;4179188;28;20620;-86
2022/05/25 08:15:06;;;;;;;3.53;1.80;;;;;;;24.18;57.83;98218.56;4174916;28;20721;-86
2022/05/25 08:17:09;;;;;;;3.80;1.90;;;;;;;23.76;59.70;98206.91;4176009;28;20643;-86
2022/05/25 08:19:12;;;;;;;5.50;1.40;;;;;;;23.21;58.46;98204.78;4176766;28;20664;-86
2022/05/25 08:21:15;;;;;;;4.23;1.50;;;;;;;22.97;60.96;98206.81;4158552;28;20631;-88
2022/05/25 08:23:40;;;;;;;4.00;1.90;;;;;;;23.42;61.41;98207.56;4193972;28;21280;-88
2022/05/25 08:25:44;;;;;;;4.37;2.03;;;;;;;23.62;57.31;98206.88;4170876;28;21143;-87
2022/05/25 08:27:50;;;;;;;4.60;1.97;;;;;;;23.78;56.66;98209.38;4170944;28;20720;-87
2022/05/25 08:29:53;;;;;;;5.00;1.60;;;;;;;24.08;59.71;98203.03;4153416;28;21121;-88
2022/05/25 08:31:57;;;;;;;7.27;1.73;;;;;;;24.33;56.64;98210.59;4161595;28;20653;-88
2022/05/25 08:34:01;;;;;;;2.60;1.50;;;;;;;24.44;56.69;98210.91;4157120;28;20652;-88
2022/05/25 08:36:04;;;;;;;5.40;1.90;;;;;;;24.44;56.11;98208.25;4158565;28;20625;-87
2022/05/25 08:38:07;;;;;;;2.57;1.60;;;;;;;24.57;55.91;98213.75;4177220;28;20628;-89
2022/05/25 08:40:15;;;;;;;2.97;2.03;;;;;;;24.41;56.77;98213.13;4192083;28;20627;-86
2022/05/25 08:42:20;;;;;;;3.90;1.83;;;;;;;24.57;57.68;98223.56;4156489;28;20695;-86
2022/05/25 08:44:24;;;;;;;2.63;1.60;;;;;;;24.71;56.81;98218.19;4174972;28;20629;-88
2022/05/25 08:46:28;;;;;;;3.57;1.80;;;;;;;24.78;54.27;98221.78;4161100;28;21297;-87
2022/05/25 08:48:35;;;;;;;5.47;1.60;;;;;;;24.54;56.81;98210.63;4178270;28;20637;-87
2022/05/25 08:50:39;;;;;;;2.90;1.40;;;;;;;24.38;55.97;98206.31;4172501;28;20736;-87
2022/05/25 08:52:44;;;;;;;4.20;1.97;;;;;;;24.37;55.57;98210.03;4175330;28;20636;-88
2022/05/25 08:54:48;;;;;;;3.17;1.67;;;;;;;24.49;56.44;98213.84;4146418;28;20773;-87
2022/05/25 08:57:03;;;;;;;5.37;1.80;;;;;;;24.50;55.09;98217.34;4157665;28;20623;-87
2022/05/25 08:59:11;;;;;;;8.30;1.90;;;;;;;24.61;54.41;98219.50;4157239;28;21229;-89
2022/05/25 09:01:20;;;;;;;7.10;1.70;;;;;;;24.64;55.15;98218.13;4178459;28;20727;-89
2022/05/25 09:03:27;;;;;;;4.83;1.60;;;;;;;24.62;55.58;98211.31;4159485;28;20632;-88
2022/05/25 09:05:35;;;;;;;2.83;1.30;;;;;;;24.64;54.20;98217.28;4160785;28;20673;-88
2022/05/25 09:07:42;;;;;;;3.87;1.40;;;;;;;24.69;53.94;98212.22;4179118;28;20719;-89
2022/05/25 09:09:47;;;;;;;2.97;2.00;;;;;;;24.70;58.53;98222.72;4177159;28;21066;-88
2022/05/25 09:11:53;;;;;;;3.47;1.60;;;;;;;24.65;55.97;98210.94;4175553;28;21220;-88
2022/05/25 09:14:01;;;;;;;2.87;1.50;;;;;;;24.71;58.02;98215.53;4169194;28;20717;-88
2022/05/25 09:16:18;;;;;;;2.87;1.30;;;;;;;24.75;55.94;98212.28;4171505;28;21246;-89
2022/05/25 09:18:22;;;;;;;1.90;1.40;;;;;;;24.69;57.26;98213.03;4178921;28;20644;-89
2022/05/25 09:20:31;;;;;;;5.20;1.63;;;;;;;24.68;56.78;98216.72;4175014;28;20636;-89
2022/05/25 09:22:34;;;;;;;2.47;1.30;;;;;;;24.82;55.11;98218.53;4156661;28;20641;-89
2022/05/25 09:24:38;;;;;;;2.70;1.33;;;;;;;24.82;53.65;98217.69;4171721;28;21043;-89
2022/05/25 09:26:42;;;;;;;4.10;2.10;;;;;;;24.61;55.28;98214.19;4176924;28;21105;-89
2022/05/25 09:28:50;;;;;;;2.60;1.50;;;;;;;24.69;56.40;98213.03;4192798;28;20623;-88
2022/05/25 09:30:57;;;;;;;5.20;1.80;;;;;;;24.86;56.97;98218.97;4177203;28;20678;-88
2022/05/25 09:33:02;;;;;;;1.90;1.23;;;;;;;24.96;54.39;98214.13;4159046;28;21020;-87
2022/05/25 09:35:10;;;;;;;4.03;1.40;;;;;;;24.51;53.40;98217.16;4175465;28;20621;-88
2022/05/25 09:37:17;;;;;;;2.60;1.30;;;;;;;24.10;54.19;98209.00;4175162;28;21057;-87
2022/05/25 09:39:32;;;;;;;1.70;1.20;;;;;;;24.18;54.31;98212.41;4174632;28;21187;-91
2022/05/25 09:41:35;;;;;;;2.43;1.30;;;;;;;24.34;54.81;98213.06;4188921;28;20615;-93
2022/05/25 09:43:39;;;;;;;2.10;1.20;;;;;;;24.57;53.39;98224.41;4152861;28;21023;-87
2022/05/25 09:45:48;;;;;;;3.40;1.30;;;;;;;24.27;51.34;98220.13;4157081;28;20665;-87
2022/05/25 09:47:53;;;;;;;3.20;1.33;;;;;;;24.13;52.12;98219.31;4159653;28;21218;-87
2022/05/25 09:49:58;;;;;;;2.00;1.37;;;;;;;24.10;54.17;98225.00;4154862;28;20632;-87
2022/05/25 09:52:03;;;;;;;3.07;1.50;;;;;;;23.83;54.85;98228.31;4169995;28;20629;-87
2022/05/25 09:54:12;;;;;;;3.57;1.40;;;;;;;23.80;57.04;98218.00;4173103;28;20630;-88
2022/05/25 09:56:20;;;;;;;2.70;1.50;;;;;;;24.19;57.63;98214.03;4186811;28;20615;-87
2022/05/25 09:58:34;;;;;;;2.63;1.13;;;;;;;24.48;56.65;98217.53;4185890;28;21050;-87
2022/05/25 10:00:45;;;;;;;2.93;1.40;;;;;;;24.44;52.77;98228.75;4174129;28;20694;-87
2022/05/25 10:02:50;;;;;;;2.50;1.37;;;;;;;24.51;56.59;98221.69;4174795;28;20623;-87
2022/05/25 10:04:56;;;;;;;2.80;1.00;;;;;;;24.56;51.82;98217.41;4174393;28;20629;-87
2022/05/25 10:06:59;;;;;;;2.77;1.20;;;;;;;24.52;54.11;98220.63;4157675;28;20666;-88
2022/05/25 10:09:10;;;;;;;2.03;1.20;;;;;;;24.67;55.66;98227.59;4173152;28;20627;-87